CheckWX is a tool to help pilots better visualize weather data.  It is not intended as a substitute for an official pre-flight weather briefing.

04:42:55 UTC

UKOO TAF
Odessa International Airport
Odessa, Ukraine
TAF UKOO 222303Z 2300/2324 34008G15MPS 2100 -SHRA BR BKN007 SCT020CB TX10/2312Z TN04/2304Z BECMG 2305/2306 6000 NSW BECMG 2314/2315 36006G12MPS

Mar-23@
00:00 UTC

Mar-23 @ 00:00 UTC

Mar-23@
05:00 UTC

Mar-23 @ 05:00 UTC

TAF UKOO 222303Z 2300/2324 34008G15MPS 2100 -SHRA BR BKN007 SCT020CB TX10/2312Z TN04/2304Z
Wind
  • 340° at 16 KTS
  • {Gusting to 29 KTS
Conditions
Light Rain, Mist
Cloud Levels
  • Broken at 700' AGL
  • Scattered at 2,000' AGL

Mar-23@
05:00 UTC

Mar-23 @ 05:00 UTC

Mar-23@
14:00 UTC

Mar-23 @ 14:00 UTC

BECMG 2305/2306 6000 NSW

Becoming

Becoming Conditions expected by Sat, Mar 23, 2019 @ 06:00 UTC

Wind
  • 340° at 16 KTS
  • {Gusting to 29 KTS
Conditions
No significant weather
Cloud Levels
  • Broken at 700' AGL
  • Scattered at 2,000' AGL

Mar-23@
14:00 UTC

Mar-23 @ 14:00 UTC

Mar-24@
00:00 UTC

Mar-24 @ 00:00 UTC

BECMG 2314/2315 36006G12MPS

Becoming

Becoming Conditions expected by Sat, Mar 23, 2019 @ 15:00 UTC

Wind
  • 360° at 12 KTS
  • {Gusting to 23 KTS
Conditions
No significant weather
Cloud Levels
  • Broken at 700' AGL
  • Scattered at 2,000' AGL